createdAt,value
2023-03-17T00:00:43.128Z,8.31
2023-03-17T00:03:24.669Z,8.26
2023-03-17T00:05:53.484Z,8.20
2023-03-17T00:08:23.127Z,8.18
2023-03-17T00:10:51.617Z,8.17
2023-03-17T00:13:19.258Z,8.13
2023-03-17T00:15:47.416Z,8.12
2023-03-17T00:18:15.704Z,8.07
2023-03-17T00:20:42.902Z,8.00
2023-03-17T00:23:19.819Z,8.01
2023-03-17T00:25:47.972Z,8.00
2023-03-17T00:28:18.938Z,8.02
2023-03-17T00:30:46.549Z,8.02
2023-03-17T00:33:16.194Z,8.02
2023-03-17T00:35:44.306Z,8.01
2023-03-17T00:38:14.712Z,8.02
2023-03-17T00:40:42.385Z,8.01
2023-03-17T00:43:09.981Z,7.97
2023-03-17T00:45:37.813Z,7.94
2023-03-17T00:48:11.064Z,7.92
2023-03-17T00:50:39.006Z,7.87
2023-03-17T00:53:06.653Z,7.88
2023-03-17T00:55:35.090Z,7.85
2023-03-17T00:58:02.983Z,7.84
2023-03-17T01:00:32.400Z,7.85
2023-03-17T01:03:04.258Z,7.81
2023-03-17T01:05:32.136Z,7.80
2023-03-17T01:07:59.694Z,7.79
2023-03-17T01:10:28.090Z,7.76
2023-03-17T01:12:58.205Z,7.74
2023-03-17T01:15:26.977Z,7.72
2023-03-17T01:17:54.919Z,7.74
2023-03-17T01:20:25.850Z,7.73
2023-03-17T01:22:53.363Z,7.72
2023-03-17T01:25:21.446Z,7.69
2023-03-17T01:27:49.394Z,7.69
2023-03-17T01:30:16.804Z,7.65
2023-03-17T01:32:44.906Z,7.64
2023-03-17T01:35:13.293Z,7.60
2023-03-17T01:37:41.383Z,7.61
2023-03-17T01:40:12.986Z,7.61
2023-03-17T01:42:41.486Z,7.56
2023-03-17T01:45:29.660Z,7.56
2023-03-17T01:47:57.506Z,7.60
2023-03-17T01:50:25.723Z,7.55
2023-03-17T01:52:53.755Z,7.53
2023-03-17T01:55:21.714Z,7.43
2023-03-17T01:57:54.323Z,7.32
2023-03-17T02:00:24.410Z,7.30
2023-03-17T02:02:52.684Z,7.33
2023-03-17T02:05:23.096Z,7.37
2023-03-17T02:07:51.610Z,7.38
2023-03-17T02:10:19.713Z,7.39
2023-03-17T02:12:47.799Z,7.37
2023-03-17T02:15:15.591Z,7.35
2023-03-17T02:17:44.005Z,7.32
2023-03-17T02:20:16.970Z,7.29
2023-03-17T02:22:45.188Z,7.24
2023-03-17T02:25:14.089Z,7.22
2023-03-17T02:27:46.544Z,7.21
2023-03-17T02:30:17.100Z,7.14
2023-03-17T02:32:45.143Z,7.16
2023-03-17T02:35:13.399Z,7.14
2023-03-17T02:37:44.698Z,7.15
2023-03-17T02:40:14.440Z,7.14
2023-03-17T02:42:45.892Z,7.11
2023-03-17T02:45:17.256Z,7.08
2023-03-17T02:47:45.244Z,7.04
2023-03-17T02:50:18.167Z,7.01
2023-03-17T02:52:46.253Z,6.92
2023-03-17T02:55:14.388Z,6.90
2023-03-17T02:57:42.676Z,6.91
2023-03-17T03:00:13.520Z,6.89
2023-03-17T03:02:41.524Z,6.90
2023-03-17T03:05:11.411Z,6.91
2023-03-17T03:07:39.019Z,6.92
2023-03-17T03:10:09.442Z,6.94
2023-03-17T03:12:37.974Z,6.89
2023-03-17T03:15:09.736Z,6.88
2023-03-17T03:17:37.608Z,6.89
2023-03-17T03:20:08.529Z,6.87
2023-03-17T03:22:36.466Z,6.88
2023-03-17T03:25:04.935Z,6.93
2023-03-17T03:27:32.755Z,6.96
2023-03-17T03:30:00.900Z,6.96
2023-03-17T03:32:28.345Z,6.95
2023-03-17T03:34:56.968Z,6.98
2023-03-17T03:37:25.856Z,6.94
2023-03-17T03:39:54.103Z,6.94
2023-03-17T03:42:22.155Z,6.97
2023-03-17T03:44:50.199Z,6.98
2023-03-17T03:47:20.744Z,6.97
2023-03-17T03:49:48.741Z,6.94
2023-03-17T03:52:16.473Z,6.90
2023-03-17T03:54:44.686Z,6.89
2023-03-17T03:57:13.476Z,6.90
2023-03-17T03:59:41.396Z,6.89
2023-03-17T04:02:10.154Z,6.86
2023-03-17T04:04:39.011Z,6.85
2023-03-17T04:07:07.724Z,6.85
2023-03-17T04:09:35.532Z,6.77
2023-03-17T04:12:04.117Z,6.75
2023-03-17T04:14:31.836Z,6.76
2023-03-17T04:17:00.420Z,6.69
2023-03-17T04:19:28.134Z,6.68
2023-03-17T04:21:56.155Z,6.69
2023-03-17T04:24:24.252Z,6.64
2023-03-17T04:26:52.710Z,6.71
2023-03-17T04:29:20.613Z,6.69
2023-03-17T04:31:48.951Z,6.67
2023-03-17T04:34:18.091Z,6.60
2023-03-17T04:36:46.748Z,6.58
2023-03-17T04:39:14.927Z,6.55
2023-03-17T04:41:43.033Z,6.47
2023-03-17T04:44:11.097Z,6.43
2023-03-17T04:46:39.174Z,6.37
2023-03-17T04:49:06.992Z,6.37
2023-03-17T04:51:36.939Z,6.40
2023-03-17T04:54:03.927Z,6.43
2023-03-17T04:56:32.462Z,6.44
2023-03-17T04:59:00.789Z,6.45
2023-03-17T05:01:28.930Z,6.44
2023-03-17T05:03:57.018Z,6.47
2023-03-17T05:06:25.280Z,6.41
2023-03-17T05:08:53.616Z,6.42
2023-03-17T05:11:21.821Z,6.47
2023-03-17T05:13:49.963Z,6.43
2023-03-17T05:16:17.646Z,6.40
2023-03-17T05:18:45.609Z,6.37
2023-03-17T05:21:13.369Z,6.36
2023-03-17T05:23:41.945Z,6.35
2023-03-17T05:26:10.351Z,6.32
2023-03-17T05:28:38.341Z,6.31
2023-03-17T05:31:07.252Z,6.33
2023-03-17T05:33:37.321Z,6.35
2023-03-17T05:36:07.264Z,6.39
2023-03-17T05:38:34.838Z,6.40
2023-03-17T05:41:04.602Z,6.38
2023-03-17T05:43:32.802Z,6.40
2023-03-17T05:46:01.156Z,6.48
2023-03-17T05:48:29.615Z,6.58
2023-03-17T05:50:57.250Z,6.67
2023-03-17T05:53:29.392Z,6.72
2023-03-17T05:55:57.814Z,6.82
2023-03-17T05:58:25.766Z,6.89
2023-03-17T06:00:53.409Z,6.95
2023-03-17T06:03:22.997Z,7.05
2023-03-17T06:05:50.879Z,7.13
2023-03-17T06:08:18.745Z,7.13
2023-03-17T06:10:46.554Z,7.19
2023-03-17T06:13:14.579Z,7.30
2023-03-17T06:15:45.512Z,7.41
2023-03-17T06:18:13.695Z,7.53
2023-03-17T06:20:44.580Z,7.69
2023-03-17T06:23:12.577Z,7.81
2023-03-17T06:25:40.401Z,7.88
2023-03-17T06:28:08.477Z,8.00
2023-03-17T06:30:40.407Z,8.13
2023-03-17T06:33:08.806Z,8.25
2023-03-17T06:35:36.728Z,8.36
2023-03-17T06:38:08.974Z,8.38
2023-03-17T06:40:36.105Z,8.44
2023-03-17T06:43:04.492Z,8.52
2023-03-17T06:45:35.413Z,8.59
2023-03-17T06:48:03.719Z,8.62
2023-03-17T06:50:31.384Z,8.69
2023-03-17T06:52:59.133Z,8.74
2023-03-17T06:55:27.635Z,8.77
2023-03-17T06:57:55.768Z,8.83
2023-03-17T07:00:24.463Z,8.91
2023-03-17T07:02:52.787Z,9.00
2023-03-17T07:05:20.804Z,9.04
2023-03-17T07:07:48.713Z,9.11
2023-03-17T07:10:16.493Z,9.19
2023-03-17T07:12:44.967Z,9.25
2023-03-17T07:15:13.619Z,9.29
2023-03-17T07:17:42.580Z,9.35
2023-03-17T07:20:12.573Z,9.43
2023-03-17T07:22:40.988Z,9.50
2023-03-17T07:25:11.013Z,9.57
2023-03-17T07:27:38.867Z,9.60
2023-03-17T07:30:08.097Z,9.65
2023-03-17T07:32:36.399Z,9.73
2023-03-17T07:35:05.236Z,9.82
2023-03-17T07:37:33.302Z,9.91
2023-03-17T07:40:01.214Z,10.01
2023-03-17T07:42:29.103Z,10.08
2023-03-17T07:44:56.852Z,10.14
2023-03-17T07:47:25.013Z,10.23
2023-03-17T07:49:53.303Z,10.34
2023-03-17T07:52:21.244Z,10.45
2023-03-17T07:54:49.562Z,10.54
2023-03-17T07:57:17.218Z,10.65
2023-03-17T07:59:45.453Z,10.74
2023-03-17T08:02:17.235Z,10.87
2023-03-17T08:04:48.891Z,11.00
2023-03-17T08:07:16.370Z,11.09
2023-03-17T08:09:44.656Z,11.22
2023-03-17T08:12:14.106Z,11.27
2023-03-17T08:14:41.814Z,11.39
2023-03-17T08:17:10.549Z,11.50
2023-03-17T08:19:38.952Z,11.57
2023-03-17T08:22:08.348Z,11.68
2023-03-17T08:24:37.113Z,11.76
2023-03-17T08:27:05.348Z,11.84
2023-03-17T08:29:33.573Z,11.91
2023-03-17T08:32:01.641Z,12.02
2023-03-17T08:34:29.468Z,12.09
2023-03-17T08:36:57.447Z,12.08
2023-03-17T08:39:25.534Z,12.17
2023-03-17T08:41:53.479Z,12.31
2023-03-17T08:44:21.851Z,12.39
2023-03-17T08:46:49.592Z,12.45
2023-03-17T08:49:17.798Z,12.51
2023-03-17T08:51:45.300Z,12.61
2023-03-17T08:54:12.635Z,12.67
2023-03-17T08:56:41.112Z,12.71
2023-03-17T08:59:31.596Z,12.74
2023-03-17T09:01:59.493Z,12.74
2023-03-17T09:04:28.122Z,12.80
2023-03-17T09:07:03.256Z,12.87
2023-03-17T09:09:32.292Z,12.94
2023-03-17T09:12:00.399Z,12.99
2023-03-17T09:14:28.974Z,13.09
2023-03-17T09:16:57.561Z,13.11
2023-03-17T09:19:25.898Z,13.17
2023-03-17T09:21:53.859Z,13.24
2023-03-17T09:24:21.696Z,13.26
2023-03-17T09:26:49.291Z,13.30
2023-03-17T09:29:17.385Z,13.37
2023-03-17T09:31:47.130Z,13.45
2023-03-17T09:34:15.255Z,13.49
2023-03-17T09:36:42.810Z,13.52
2023-03-17T09:39:10.603Z,13.48
2023-03-17T09:41:57.441Z,13.63
2023-03-17T09:44:45.527Z,13.67
2023-03-17T09:47:29.249Z,13.70
2023-03-17T09:49:59.052Z,13.83
2023-03-17T09:52:31.264Z,13.90
2023-03-17T09:54:58.146Z,13.88
2023-03-17T09:57:40.701Z,13.99
2023-03-17T10:00:19.423Z,14.09
2023-03-17T10:02:46.862Z,14.16
2023-03-17T10:05:13.903Z,14.21
2023-03-17T10:08:29.617Z,14.40
2023-03-17T10:11:18.816Z,14.45
2023-03-17T10:14:00.792Z,14.49
2023-03-17T10:16:33.733Z,14.55
2023-03-17T10:19:27.536Z,14.59
2023-03-17T10:21:59.206Z,14.61
2023-03-17T10:24:26.507Z,14.47
2023-03-17T10:26:54.347Z,14.56
2023-03-17T10:29:24.852Z,14.61
2023-03-17T10:31:53.336Z,14.52
2023-03-17T10:34:28.100Z,14.57
2023-03-17T10:37:27.375Z,14.54
2023-03-17T10:39:56.957Z,14.71
2023-03-17T10:42:29.358Z,14.75
2023-03-17T10:45:04.684Z,14.80
2023-03-17T10:47:40.791Z,14.83
2023-03-17T10:50:23.087Z,14.95
2023-03-17T10:52:59.674Z,15.01
2023-03-17T10:55:32.997Z,15.18
2023-03-17T10:58:08.351Z,15.26
2023-03-17T11:00:36.449Z,15.52
2023-03-17T11:03:13.785Z,16.14
2023-03-17T11:05:41.633Z,17.38
2023-03-17T11:08:17.853Z,18.42
2023-03-17T11:10:47.539Z,19.17
2023-03-17T11:13:17.791Z,19.80
2023-03-17T11:15:54.654Z,20.13
2023-03-17T11:18:24.294Z,20.66
2023-03-17T11:21:04.406Z,21.44
2023-03-17T11:23:48.257Z,21.91
2023-03-17T11:26:42.240Z,22.29
2023-03-17T11:29:30.493Z,22.06
2023-03-17T11:31:57.480Z,21.73
2023-03-17T11:34:40.476Z,21.51
2023-03-17T11:37:26.035Z,21.27
2023-03-17T11:40:05.975Z,21.26
2023-03-17T11:42:37.117Z,21.31
2023-03-17T11:45:15.751Z,21.34
2023-03-17T11:48:04.856Z,20.93
2023-03-17T11:50:40.193Z,20.60
2023-03-17T11:53:07.439Z,20.06
2023-03-17T11:56:04.422Z,19.60
2023-03-17T11:58:42.574Z,19.42
2023-03-17T12:01:13.675Z,19.37
2023-03-17T12:03:49.107Z,19.58
2023-03-17T12:06:33.659Z,20.00
2023-03-17T12:09:07.921Z,20.36
2023-03-17T12:11:38.255Z,20.80
2023-03-17T12:14:08.389Z,21.18
2023-03-17T12:16:35.444Z,21.49
2023-03-17T12:19:17.034Z,21.41
2023-03-17T12:21:54.398Z,21.66
2023-03-17T12:24:23.024Z,21.63
2023-03-17T12:27:01.947Z,21.74
2023-03-17T12:29:35.428Z,22.13
2023-03-17T12:32:16.938Z,22.22
2023-03-17T12:34:52.635Z,22.27
2023-03-17T12:37:19.761Z,22.72
2023-03-17T12:40:15.754Z,22.56
2023-03-17T12:43:07.420Z,22.51
2023-03-17T12:45:48.734Z,22.72
2023-03-17T12:48:25.803Z,22.93
2023-03-17T12:51:38.377Z,23.40
2023-03-17T12:54:12.293Z,23.43
2023-03-17T12:56:39.348Z,23.44
2023-03-17T12:59:08.639Z,24.06
2023-03-17T13:01:42.191Z,23.87
2023-03-17T13:04:26.465Z,23.59
2023-03-17T13:07:24.650Z,23.17
2023-03-17T13:09:54.503Z,23.04
2023-03-17T13:12:36.771Z,23.29
2023-03-17T13:15:03.984Z,23.50
2023-03-17T13:17:32.292Z,23.81
2023-03-17T13:20:08.289Z,24.14
2023-03-17T13:23:24.345Z,24.50
2023-03-17T13:25:55.188Z,24.42
2023-03-17T13:28:41.414Z,24.69
2023-03-17T13:31:28.539Z,25.09
2023-03-17T13:33:56.719Z,25.11
2023-03-17T13:36:36.364Z,24.87
2023-03-17T13:39:24.700Z,24.65
2023-03-17T13:41:55.779Z,24.87
2023-03-17T13:44:43.534Z,24.87
2023-03-17T13:47:34.030Z,24.94
2023-03-17T13:50:08.761Z,24.63
2023-03-17T13:52:40.870Z,24.27
2023-03-17T13:55:23.703Z,24.35
2023-03-17T13:58:24.053Z,24.44
2023-03-17T14:00:57.099Z,24.54
2023-03-17T14:03:43.946Z,24.69
2023-03-17T14:06:12.124Z,24.89
2023-03-17T14:08:47.855Z,25.05
2023-03-17T14:11:29.777Z,25.15
2023-03-17T14:14:06.103Z,25.50
2023-03-17T14:16:42.686Z,26.05
2023-03-17T14:19:21.655Z,26.21
2023-03-17T14:21:48.791Z,25.93
2023-03-17T14:24:46.075Z,25.79
2023-03-17T14:27:15.373Z,25.66
2023-03-17T14:29:42.166Z,25.25
2023-03-17T14:32:17.607Z,25.51
2023-03-17T14:34:48.284Z,25.41
2023-03-17T14:37:16.121Z,25.08
2023-03-17T14:39:52.261Z,24.63
2023-03-17T14:42:21.210Z,24.18
2023-03-17T14:44:49.234Z,23.63
2023-03-17T14:47:20.637Z,23.14
2023-03-17T14:49:48.615Z,22.94
2023-03-17T14:52:21.655Z,22.78
2023-03-17T14:54:53.705Z,22.87
2023-03-17T14:57:51.196Z,22.90
2023-03-17T15:00:37.901Z,22.50
2023-03-17T15:03:17.333Z,22.28
2023-03-17T15:05:49.475Z,22.15
2023-03-17T15:08:41.122Z,22.07
2023-03-17T15:11:16.044Z,21.73
2023-03-17T15:13:44.059Z,21.48
2023-03-17T15:16:40.408Z,21.31
2023-03-17T15:19:20.510Z,21.25
2023-03-17T15:21:59.873Z,21.34
2023-03-17T15:24:41.353Z,21.42
2023-03-17T15:27:18.249Z,21.46
2023-03-17T15:29:45.495Z,21.69
2023-03-17T15:32:16.667Z,21.64
2023-03-17T15:34:44.894Z,21.47
2023-03-17T15:37:18.074Z,21.23
2023-03-17T15:39:46.177Z,21.01
2023-03-17T15:42:14.102Z,20.82
2023-03-17T15:44:41.773Z,20.77
2023-03-17T15:47:10.580Z,20.72
2023-03-17T15:49:38.592Z,20.56
2023-03-17T15:52:15.581Z,20.49
2023-03-17T15:54:45.793Z,20.41
2023-03-17T15:57:13.546Z,20.21
2023-03-17T15:59:41.399Z,19.97
2023-03-17T16:02:27.916Z,19.93
2023-03-17T16:04:55.926Z,19.62
2023-03-17T16:07:23.803Z,19.41
2023-03-17T16:09:52.062Z,19.28
2023-03-17T16:12:19.916Z,19.19
2023-03-17T16:14:47.917Z,19.11
2023-03-17T16:17:20.635Z,19.10
2023-03-17T16:19:48.086Z,19.08
2023-03-17T16:22:35.474Z,19.02
2023-03-17T16:25:04.807Z,18.86
2023-03-17T16:27:32.985Z,18.70
2023-03-17T16:30:00.690Z,18.58
2023-03-17T16:32:28.405Z,18.47
2023-03-17T16:34:56.583Z,18.31
2023-03-17T16:37:24.697Z,18.21
2023-03-17T16:39:53.007Z,18.13
2023-03-17T16:42:23.573Z,18.11
2023-03-17T16:44:51.006Z,18.13
2023-03-17T16:47:19.086Z,18.12
2023-03-17T16:49:46.966Z,18.07
2023-03-17T16:52:15.063Z,17.97
2023-03-17T16:54:42.727Z,17.82
2023-03-17T16:57:12.037Z,17.60
2023-03-17T16:59:40.065Z,17.42
2023-03-17T17:02:15.451Z,17.26
2023-03-17T17:04:43.485Z,17.14
2023-03-17T17:07:11.802Z,16.96
2023-03-17T17:09:39.803Z,16.76
2023-03-17T17:12:08.726Z,16.61
2023-03-17T17:14:37.009Z,16.42
2023-03-17T17:17:04.373Z,16.24
2023-03-17T17:19:35.077Z,16.05
2023-03-17T17:22:03.359Z,15.90
2023-03-17T17:24:31.218Z,15.77
2023-03-17T17:26:59.744Z,15.67
2023-03-17T17:29:27.809Z,15.57
2023-03-17T17:31:55.876Z,15.48
2023-03-17T17:34:24.362Z,15.38
2023-03-17T17:36:52.126Z,15.26
2023-03-17T17:39:20.261Z,15.13
2023-03-17T17:41:48.547Z,15.11
2023-03-17T17:44:16.357Z,15.08
2023-03-17T17:46:45.426Z,15.04
2023-03-17T17:49:13.300Z,15.04
2023-03-17T17:51:41.022Z,14.97
2023-03-17T17:54:09.227Z,14.94
2023-03-17T17:56:40.151Z,14.95
2023-03-17T17:59:08.132Z,14.95
2023-03-17T18:01:36.092Z,14.95
2023-03-17T18:04:03.747Z,14.89
2023-03-17T18:06:32.015Z,14.78
2023-03-17T18:08:59.778Z,14.65
2023-03-17T18:11:27.720Z,14.59
2023-03-17T18:13:55.934Z,14.51
2023-03-17T18:16:24.685Z,14.44
2023-03-17T18:18:51.683Z,14.43
2023-03-17T18:21:19.229Z,14.34
2023-03-17T18:23:50.085Z,14.20
2023-03-17T18:26:17.817Z,14.12
2023-03-17T18:28:45.104Z,13.98
2023-03-17T18:31:14.474Z,13.85
2023-03-17T18:33:42.168Z,13.71
2023-03-17T18:36:09.849Z,13.54
2023-03-17T18:38:37.917Z,13.42
2023-03-17T18:41:05.341Z,13.31
2023-03-17T18:43:33.101Z,13.21
2023-03-17T18:46:01.156Z,13.16
2023-03-17T18:48:28.814Z,13.10
2023-03-17T18:50:56.886Z,13.07
2023-03-17T18:53:24.280Z,12.97
2023-03-17T18:55:53.106Z,12.88
2023-03-17T18:58:20.734Z,12.92
2023-03-17T19:00:49.616Z,12.94
2023-03-17T19:03:17.406Z,12.91
2023-03-17T19:05:45.717Z,12.87
2023-03-17T19:08:15.307Z,12.85
2023-03-17T19:10:46.333Z,12.80
2023-03-17T19:13:14.250Z,12.75
2023-03-17T19:15:42.052Z,12.74
2023-03-17T19:18:12.310Z,12.72
2023-03-17T19:20:40.996Z,12.76
2023-03-17T19:23:08.781Z,12.83
2023-03-17T19:25:36.916Z,12.83
2023-03-17T19:28:05.404Z,12.84
2023-03-17T19:30:32.898Z,12.83
2023-03-17T19:33:00.845Z,12.84
2023-03-17T19:35:29.073Z,12.77
2023-03-17T19:37:57.121Z,12.73
2023-03-17T19:40:25.513Z,12.66
2023-03-17T19:42:53.161Z,12.59
2023-03-17T19:45:26.172Z,12.41
2023-03-17T19:47:54.102Z,12.16
2023-03-17T19:50:21.833Z,12.05
2023-03-17T19:52:49.629Z,12.07
2023-03-17T19:55:17.930Z,12.00
2023-03-17T19:57:45.583Z,11.98
2023-03-17T20:00:15.028Z,11.95
2023-03-17T20:02:45.879Z,11.97
2023-03-17T20:05:14.081Z,11.87
2023-03-17T20:07:42.159Z,11.73
2023-03-17T20:10:13.469Z,11.65
2023-03-17T20:12:42.633Z,11.65
2023-03-17T20:15:10.278Z,11.63
2023-03-17T20:17:38.304Z,11.58
2023-03-17T20:20:10.575Z,11.58
2023-03-17T20:22:40.585Z,11.57
2023-03-17T20:25:10.629Z,11.62
2023-03-17T20:27:38.750Z,11.64
2023-03-17T20:30:08.374Z,11.59
2023-03-17T20:32:36.277Z,11.58
2023-03-17T20:35:06.737Z,11.49
2023-03-17T20:37:35.859Z,11.43
2023-03-17T20:40:05.601Z,11.34
2023-03-17T20:42:33.752Z,11.19
2023-03-17T20:45:03.350Z,11.02
2023-03-17T20:47:30.872Z,10.92
2023-03-17T20:49:59.503Z,10.79
2023-03-17T20:52:30.062Z,10.85
2023-03-17T20:54:59.576Z,11.00
2023-03-17T20:57:27.722Z,11.07
2023-03-17T20:59:56.065Z,11.12
2023-03-17T21:02:24.015Z,11.17
2023-03-17T21:04:52.573Z,11.22
2023-03-17T21:07:21.247Z,11.18
2023-03-17T21:09:49.656Z,11.19
2023-03-17T21:12:20.648Z,11.20
2023-03-17T21:14:48.768Z,11.29
2023-03-17T21:17:16.437Z,11.26
2023-03-17T21:19:44.505Z,11.25
2023-03-17T21:22:12.652Z,11.24
2023-03-17T21:24:40.668Z,11.20
2023-03-17T21:27:11.258Z,11.16
2023-03-17T21:29:40.049Z,11.13
2023-03-17T21:32:08.667Z,11.10
2023-03-17T21:34:36.955Z,11.08
2023-03-17T21:37:05.811Z,11.07
2023-03-17T21:39:33.150Z,11.04
2023-03-17T21:42:02.091Z,10.94
2023-03-17T21:44:29.726Z,10.86
2023-03-17T21:46:57.612Z,10.79
2023-03-17T21:49:25.318Z,10.73
2023-03-17T21:51:54.517Z,10.75
2023-03-17T21:54:22.602Z,10.75
2023-03-17T21:56:50.185Z,10.66
2023-03-17T21:59:18.794Z,10.59
2023-03-17T22:01:46.947Z,10.63
2023-03-17T22:04:14.707Z,10.55
2023-03-17T22:06:42.445Z,10.28
2023-03-17T22:09:11.112Z,10.07
2023-03-17T22:11:38.864Z,10.01
2023-03-17T22:14:06.743Z,9.97
2023-03-17T22:16:34.737Z,10.00
2023-03-17T22:19:02.480Z,9.94
2023-03-17T22:21:31.930Z,9.72
2023-03-17T22:23:59.818Z,9.46
2023-03-17T22:26:28.548Z,9.28
2023-03-17T22:28:55.793Z,9.15
2023-03-17T22:31:25.626Z,9.10
2023-03-17T22:33:55.459Z,9.12
2023-03-17T22:36:23.988Z,9.05
2023-03-17T22:38:51.970Z,9.08
2023-03-17T22:41:21.814Z,9.12
2023-03-17T22:43:49.493Z,9.09
2023-03-17T22:46:18.070Z,9.13
2023-03-17T22:48:46.327Z,9.13
2023-03-17T22:51:16.715Z,9.09
2023-03-17T22:53:44.742Z,9.01
2023-03-17T22:56:12.980Z,8.95
2023-03-17T22:58:41.117Z,8.88
2023-03-17T23:01:09.248Z,8.99
2023-03-17T23:03:37.184Z,8.81
2023-03-17T23:06:05.087Z,8.70
2023-03-17T23:08:35.305Z,8.67
2023-03-17T23:11:04.607Z,8.72
2023-03-17T23:13:32.442Z,8.71
2023-03-17T23:16:01.012Z,8.77
2023-03-17T23:18:29.151Z,8.81
2023-03-17T23:20:56.938Z,8.81
2023-03-17T23:23:24.571Z,8.81
2023-03-17T23:25:52.288Z,8.84
2023-03-17T23:28:26.540Z,8.88
2023-03-17T23:30:54.208Z,8.92
2023-03-17T23:33:22.995Z,8.94
2023-03-17T23:35:51.560Z,8.93
2023-03-17T23:38:19.633Z,8.97
2023-03-17T23:40:46.783Z,8.94
2023-03-17T23:43:14.949Z,8.90
2023-03-17T23:45:44.289Z,8.81
2023-03-17T23:48:11.974Z,8.82
2023-03-17T23:50:41.177Z,8.81
2023-03-17T23:53:09.647Z,8.69
2023-03-17T23:55:37.818Z,8.55
2023-03-17T23:58:06.294Z,8.43
